Madrid, Alabama
Current Conditions -  °F | °C
As of 5:01 PM on Saturday 20 Dec 2014 (Local Time) from KDHN Reporting Station
Overcast Overcast  
Wind Chill: 54°   Ceiling: 5500
Heat Index: 54°   Visibility: 10mi
Dew Point: 50°   Wind: 7mph
Humidity: 88%   Direction: 30°NNE
Pressure: 30.15"   Gusts: NA
Location:  31.0679°N, 85.3591°W
Report Text: KDHN 202301Z 03006KT 10SM SCT014 BKN055 OVC085 12/10 A3015 RMK AO2
Loading
Personal Weather Stations






























Interactive Weather Map New forecast layout! Learn more

10-Day Weather Forecast

Advertisements
Track Severe Weather on mobile